Trans Sea — 9HA2564 — position and weather

sailwx.info

Track history (hours):
 
Tides and Currents Weather Stations Pressure Air Temp Water Temp Dewpoint Dewpoint Depression Visibility Wind Speed Wind Dir Waves Ship Positions

Trans Sea

Last reported at 2014-Sep-21 14:23 UTC. Time now 2014-Sep-22 04:18 UTC.
Position N 36°32' E 015°24'.

Length 107 m; draft 6.9 m.

Type: Ship (hazmat cat A). MMSI: 248887000.

Date/timePositionNaut miles runAvg speedWind from/ knotsBaromVisibWave heightAir tempDewpointWater temp
2014-Sep-21 14:23N 36°32' E 015°24'1113.3
2014-Sep-21 13:33N 36°33' E 015°10'1313.1
2014-Sep-21 12:33N 36°35' E 014°54'1313.4
2014-Sep-21 11:33N 36°38' E 014°38'1313.4
2014-Sep-21 10:33N 36°41' E 014°22'1413.6
2014-Sep-21 09:33N 36°48' E 014°07'1413.7
2014-Sep-21 08:33N 36°55' E 013°52'1313.5
2014-Sep-21 07:33N 37°01' E 013°37'1412.9
2014-Sep-21 06:30N 37°07' E 013°21'1312.8
2014-Sep-21 05:30N 37°13' E 013°08'1212.6
2014-Sep-21 04:33N 37°19' E 012°55'2712.0
2014-Sep-21 02:17N 37°30' E 012°23'1012.7
2014-Sep-21 01:32N 37°31' E 012°11'5413.3
2014-Sep-20 21:27N 37°34' E 011°03'1313.7
2014-Sep-20 20:32N 37°34' E 010°47'1413.7
2014-Sep-20 19:33N 37°34' E 010°30'1413.7
2014-Sep-20 18:33N 37°34' E 010°13'1413.7
2014-Sep-20 17:33N 37°33' E 009°56'1413.9
2014-Sep-20 16:33N 37°30' E 009°39'1413.8
2014-Sep-20 15:33N 37°27' E 009°22'1313.3
2014-Sep-20 14:34N 37°24' E 009°05'1313.2
2014-Sep-20 13:34N 37°22' E 008°49'1313.0
2014-Sep-20 12:33N 37°19' E 008°33'1312.8
2014-Sep-20 11:33N 37°19' E 008°17'1312.6
2014-Sep-20 10:33N 37°19' E 008°01'1512.9
2014-Sep-20 09:24N 37°18' E 007°42'6513.2
2014-Sep-20 04:32N 37°18' E 006°21'1312.0
2014-Sep-20 03:26N 37°17' E 006°05'1111.9
2014-Sep-20 02:33N 37°16' E 005°52'3112.9
2014-Sep-20 00:10N 37°13' E 005°13'2413.0
2014-Sep-19 22:21N 37°11' E 004°44'1312.8
2014-Sep-19 21:20N 37°09' E 004°27'4912.7
2014-Sep-19 17:27N 37°04' E 003°26'1213.6
2014-Sep-19 16:32N 37°02' E 003°11'1313.7
2014-Sep-19 15:33N 36°59' E 002°54'1413.9
2014-Sep-19 14:33N 36°58' E 002°37'1313.5
2014-Sep-19 13:33N 36°55' E 002°20'37613.9
2014-Sep-18 10:34N 35°58' W 005°21'  
2014-Sep-14 11:12N 36°47' W 008°11'  
Track history (hours):
 
Tides and Currents Weather Stations Pressure Air Temp Water Temp Dewpoint Dewpoint Depression Visibility Wind Speed Wind Dir Waves Ship Positions

Trans Sea

Last reported at 2014-Sep-21 14:23 UTC. Time now 2014-Sep-22 04:18 UTC.
Position N 36°32' E 015°24'.

Length 107 m; draft 6.9 m.

Type: Ship (hazmat cat A). MMSI: 248887000.

Date/timePositionNaut miles runAvg speedWind from/ knotsBaromVisibWave heightAir tempDewpointWater temp
2014-Sep-21 14:23N 36°32' E 015°24'1113.3
2014-Sep-21 13:33N 36°33' E 015°10'1313.1
2014-Sep-21 12:33N 36°35' E 014°54'1313.4
2014-Sep-21 11:33N 36°38' E 014°38'1313.4
2014-Sep-21 10:33N 36°41' E 014°22'1413.6
2014-Sep-21 09:33N 36°48' E 014°07'1413.7
2014-Sep-21 08:33N 36°55' E 013°52'1313.5
2014-Sep-21 07:33N 37°01' E 013°37'1412.9
2014-Sep-21 06:30N 37°07' E 013°21'1312.8
2014-Sep-21 05:30N 37°13' E 013°08'1212.6
2014-Sep-21 04:33N 37°19' E 012°55'2712.0
2014-Sep-21 02:17N 37°30' E 012°23'1012.7
2014-Sep-21 01:32N 37°31' E 012°11'5413.3
2014-Sep-20 21:27N 37°34' E 011°03'1313.7
2014-Sep-20 20:32N 37°34' E 010°47'1413.7
2014-Sep-20 19:33N 37°34' E 010°30'1413.7
2014-Sep-20 18:33N 37°34' E 010°13'1413.7
2014-Sep-20 17:33N 37°33' E 009°56'1413.9
2014-Sep-20 16:33N 37°30' E 009°39'1413.8
2014-Sep-20 15:33N 37°27' E 009°22'1313.3
2014-Sep-20 14:34N 37°24' E 009°05'1313.2
2014-Sep-20 13:34N 37°22' E 008°49'1313.0
2014-Sep-20 12:33N 37°19' E 008°33'1312.8
2014-Sep-20 11:33N 37°19' E 008°17'1312.6
2014-Sep-20 10:33N 37°19' E 008°01'1512.9
2014-Sep-20 09:24N 37°18' E 007°42'6513.2
2014-Sep-20 04:32N 37°18' E 006°21'1312.0
2014-Sep-20 03:26N 37°17' E 006°05'1111.9
2014-Sep-20 02:33N 37°16' E 005°52'3112.9
2014-Sep-20 00:10N 37°13' E 005°13'2413.0
2014-Sep-19 22:21N 37°11' E 004°44'1312.8
2014-Sep-19 21:20N 37°09' E 004°27'4912.7
2014-Sep-19 17:27N 37°04' E 003°26'1213.6
2014-Sep-19 16:32N 37°02' E 003°11'1313.7
2014-Sep-19 15:33N 36°59' E 002°54'1413.9
2014-Sep-19 14:33N 36°58' E 002°37'1313.5
2014-Sep-19 13:33N 36°55' E 002°20'37613.9
2014-Sep-18 10:34N 35°58' W 005°21'  
2014-Sep-14 11:12N 36°47' W 008°11'  

Dump ship's entire track history